Weston, Ohio
Current Conditions -  °F | °C
As of 3:52 PM on Saturday 25 Oct 2014 (Local Time) from KTOL Reporting Station
Clear Clear  
Wind Chill: 68°   Ceiling: Unl
Heat Index: 68°   Visibility: 10mi
Dew Point: 48°   Wind: 17mph
Humidity: 49%   Direction: 270°W
Pressure: 29.79"   Gusts: 30mph
Location:  41.34°N, 83.8°W
Report Text: KTOL 251952Z 27015G26KT 10SM CLR 20/09 A2979 RMK AO2 PK WND 28027/1939 SLP087 T02000089
Loading
Personal Weather Stations






























Interactive Weather Map
Tropical Storm Tracking
New forecast layout! Learn more

10-Day Weather Forecast

Advertisements
Track Severe Weather on mobile